createdAt,value
2019-06-08T00:02:26.532Z,13.10
2019-06-08T00:04:56.460Z,13.10
2019-06-08T00:07:26.344Z,13.10
2019-06-08T00:09:55.875Z,13.10
2019-06-08T00:12:26.290Z,13.10
2019-06-08T00:14:56.116Z,13.00
2019-06-08T00:17:37.750Z,13.00
2019-06-08T00:19:57.588Z,13.00
2019-06-08T00:22:27.563Z,13.00
2019-06-08T00:24:57.494Z,13.00
2019-06-08T00:27:27.380Z,13.00
2019-06-08T00:29:57.231Z,13.00
2019-06-08T00:32:26.756Z,12.90
2019-06-08T00:34:56.672Z,12.90
2019-06-08T00:37:26.572Z,12.90
2019-06-08T00:39:56.101Z,12.90
2019-06-08T00:42:26.005Z,12.90
2019-06-08T00:44:57.072Z,12.90
2019-06-08T00:47:28.092Z,12.90
2019-06-08T00:49:58.184Z,12.90
2019-06-08T00:52:27.711Z,12.90
2019-06-08T00:54:57.227Z,13.00
2019-06-08T00:57:26.753Z,13.00
2019-06-08T00:59:56.623Z,13.00
2019-06-08T01:02:28.591Z,13.00
2019-06-08T01:04:58.590Z,13.00
2019-06-08T01:07:28.119Z,13.00
2019-06-08T01:09:58.317Z,13.00
2019-06-08T01:12:29.010Z,13.00
2019-06-08T01:14:58.965Z,13.00
2019-06-08T01:17:29.362Z,13.00
2019-06-08T01:19:59.344Z,13.00
2019-06-08T01:22:30.063Z,13.00
2019-06-08T01:24:59.975Z,12.90
2019-06-08T01:27:30.163Z,12.90
2019-06-08T01:30:00.298Z,12.90
2019-06-08T01:32:30.596Z,12.90
2019-06-08T01:35:00.460Z,12.90
2019-06-08T01:37:31.217Z,12.90
2019-06-08T01:40:01.092Z,12.90
2019-06-08T01:42:31.859Z,12.80
2019-06-08T01:45:00.925Z,12.80
2019-06-08T01:47:30.464Z,12.80
2019-06-08T01:50:00.339Z,12.80
2019-06-08T01:52:30.942Z,12.80
2019-06-08T01:55:00.591Z,12.80
2019-06-08T01:57:31.578Z,12.70
2019-06-08T02:00:28.778Z,12.70
2019-06-08T02:02:34.104Z,12.70
2019-06-08T02:05:05.558Z,12.70
2019-06-08T02:07:35.479Z,12.70
2019-06-08T02:10:09.370Z,12.70
2019-06-08T02:12:39.064Z,12.70
2019-06-08T02:15:09.353Z,12.60
2019-06-08T02:17:39.234Z,12.60
2019-06-08T02:20:10.734Z,12.70
2019-06-08T02:22:41.039Z,12.70
2019-06-08T02:25:11.133Z,12.70
2019-06-08T02:27:40.949Z,12.70
2019-06-08T02:30:13.082Z,12.70
2019-06-08T02:32:42.837Z,12.70
2019-06-08T02:35:13.255Z,12.70
2019-06-08T02:37:43.065Z,12.70
2019-06-08T02:40:14.105Z,12.60
2019-06-08T02:42:43.708Z,12.60
2019-06-08T02:45:13.856Z,12.60
2019-06-08T02:47:43.527Z,12.60
2019-06-08T02:50:15.972Z,12.60
2019-06-08T02:52:48.348Z,12.60
2019-06-08T02:55:18.188Z,12.60
2019-06-08T02:57:49.749Z,12.60
2019-06-08T03:00:19.728Z,12.60
2019-06-08T03:02:51.591Z,12.60
2019-06-08T03:05:21.116Z,12.60
2019-06-08T03:07:52.680Z,12.60
2019-06-08T03:10:22.203Z,12.60
2019-06-08T03:12:54.007Z,12.60
2019-06-08T03:15:33.842Z,12.60
2019-06-08T03:18:02.736Z,12.60
2019-06-08T03:20:33.466Z,12.60
2019-06-08T03:23:03.418Z,12.60
2019-06-08T03:25:42.041Z,12.60
2019-06-08T03:28:04.788Z,12.60
2019-06-08T03:30:38.921Z,12.60
2019-06-08T03:33:06.636Z,12.60
2019-06-08T03:35:46.575Z,12.60
2019-06-08T03:38:08.133Z,12.60
2019-06-08T03:40:38.758Z,12.60
2019-06-08T03:43:09.589Z,12.60
2019-06-08T03:45:40.754Z,12.60
2019-06-08T03:48:11.076Z,12.60
2019-06-08T03:50:42.035Z,12.60
2019-06-08T03:53:12.529Z,12.60
2019-06-08T03:55:44.958Z,12.60
2019-06-08T03:58:14.412Z,12.50
2019-06-08T04:00:44.707Z,12.50
2019-06-08T04:03:14.634Z,12.50
2019-06-08T04:05:46.431Z,12.50
2019-06-08T04:08:16.120Z,12.50
2019-06-08T04:10:46.852Z,12.50
2019-06-08T04:13:16.000Z,12.50
2019-06-08T04:15:46.912Z,12.50
2019-06-08T04:18:16.994Z,12.50
2019-06-08T04:20:48.674Z,12.60
2019-06-08T04:23:18.107Z,12.60
2019-06-08T04:25:48.052Z,12.60
2019-06-08T04:28:17.902Z,12.60
2019-06-08T04:30:49.889Z,12.60
2019-06-08T04:33:19.356Z,12.60
2019-06-08T04:35:50.643Z,12.70
2019-06-08T04:38:20.424Z,12.70
2019-06-08T04:40:50.347Z,12.70
2019-06-08T04:43:20.224Z,12.70
2019-06-08T04:45:49.970Z,12.70
2019-06-08T04:48:20.057Z,12.70
2019-06-08T04:50:49.939Z,12.70
2019-06-08T04:53:19.537Z,12.70
2019-06-08T04:55:51.355Z,12.70
2019-06-08T04:58:21.012Z,12.70
2019-06-08T05:00:51.163Z,12.70
2019-06-08T05:03:20.785Z,12.70
2019-06-08T05:05:50.441Z,12.80
2019-06-08T05:08:20.204Z,13.20
2019-06-08T05:10:49.865Z,13.20
2019-06-08T05:13:19.676Z,13.50
2019-06-08T05:15:50.238Z,14.20
2019-06-08T05:18:19.575Z,14.80
2019-06-08T05:20:51.489Z,14.70
2019-06-08T05:23:21.033Z,15.10
2019-06-08T05:25:50.996Z,15.60
2019-06-08T05:28:20.905Z,15.80
2019-06-08T05:30:50.951Z,16.00
2019-06-08T05:33:20.764Z,16.00
2019-06-08T05:35:50.625Z,16.00
2019-06-08T05:38:20.539Z,15.30
2019-06-08T05:40:50.420Z,15.20
2019-06-08T05:43:20.399Z,15.00
2019-06-08T05:45:50.241Z,15.00
2019-06-08T05:48:20.183Z,14.90
2019-06-08T05:51:00.528Z,14.90
2019-06-08T05:53:21.641Z,14.90
2019-06-08T05:55:51.536Z,14.80
2019-06-08T05:58:21.480Z,15.00
2019-06-08T06:00:51.477Z,15.00
2019-06-08T06:03:21.299Z,14.80
2019-06-08T06:05:51.341Z,14.60
2019-06-08T06:08:21.129Z,14.50
2019-06-08T06:10:51.423Z,14.30
2019-06-08T06:13:21.407Z,14.30
2019-06-08T06:15:51.669Z,14.40
2019-06-08T06:18:21.612Z,14.30
2019-06-08T06:20:51.611Z,14.20
2019-06-08T06:23:21.438Z,14.20
2019-06-08T06:25:51.766Z,14.20
2019-06-08T06:28:21.687Z,14.20
2019-06-08T06:30:52.282Z,14.10
2019-06-08T06:33:21.922Z,14.20
2019-06-08T06:35:52.173Z,14.10
2019-06-08T06:38:22.350Z,14.10
2019-06-08T06:40:52.271Z,14.10
2019-06-08T06:43:22.161Z,14.40
2019-06-08T06:45:52.210Z,14.70
2019-06-08T06:48:23.550Z,14.80
2019-06-08T06:50:53.772Z,15.10
2019-06-08T06:53:23.683Z,15.40
2019-06-08T06:55:53.417Z,15.60
2019-06-08T06:58:23.397Z,15.70
2019-06-08T07:00:53.722Z,15.80
2019-06-08T07:03:24.660Z,16.00
2019-06-08T07:05:54.476Z,16.20
2019-06-08T07:08:24.145Z,16.40
2019-06-08T07:10:55.248Z,16.60
2019-06-08T07:13:25.141Z,16.80
2019-06-08T07:15:58.114Z,17.00
2019-06-08T07:18:26.642Z,16.90
2019-06-08T07:20:56.574Z,17.00
2019-06-08T07:23:26.079Z,17.20
2019-06-08T07:25:55.961Z,17.40
2019-06-08T07:28:25.903Z,17.40
2019-06-08T07:30:55.944Z,17.50
2019-06-08T07:33:27.227Z,17.60
2019-06-08T07:35:56.878Z,17.60
2019-06-08T07:38:26.461Z,17.70
2019-06-08T07:40:59.598Z,17.80
2019-06-08T07:43:27.797Z,17.90
2019-06-08T07:45:58.451Z,17.90
2019-06-08T07:48:28.128Z,17.90
2019-06-08T07:50:58.407Z,17.90
2019-06-08T07:53:28.012Z,17.90
2019-06-08T07:55:57.569Z,17.70
2019-06-08T07:58:27.284Z,17.90
2019-06-08T08:01:03.990Z,18.00
2019-06-08T08:03:28.444Z,17.90
2019-06-08T08:05:58.603Z,17.70
2019-06-08T08:08:28.649Z,17.50
2019-06-08T08:11:00.459Z,17.20
2019-06-08T08:13:30.052Z,17.30
2019-06-08T08:16:00.726Z,17.50
2019-06-08T08:18:29.935Z,17.90
2019-06-08T08:21:09.116Z,18.10
2019-06-08T08:23:31.227Z,18.30
2019-06-08T08:26:01.864Z,18.40
2019-06-08T08:28:31.616Z,18.50
2019-06-08T08:31:01.894Z,18.70
2019-06-08T08:33:31.992Z,18.80
2019-06-08T08:36:02.108Z,19.00
2019-06-08T08:38:31.785Z,19.00
2019-06-08T08:41:07.269Z,19.00
2019-06-08T08:43:33.135Z,19.10
2019-06-08T08:46:03.047Z,19.00
2019-06-08T08:48:32.562Z,18.90
2019-06-08T08:51:03.722Z,19.00
2019-06-08T08:53:33.587Z,19.10
2019-06-08T08:56:03.121Z,19.20
2019-06-08T08:58:32.629Z,19.20
2019-06-08T09:01:03.776Z,19.30
2019-06-08T09:03:33.962Z,19.50
2019-06-08T09:06:04.280Z,19.50
2019-06-08T09:08:34.152Z,19.20
2019-06-08T09:11:04.226Z,19.10
2019-06-08T09:13:33.845Z,19.20
2019-06-08T09:16:04.537Z,19.40
2019-06-08T09:18:34.525Z,19.50
2019-06-08T09:21:18.689Z,19.70
2019-06-08T09:23:48.734Z,19.80
2019-06-08T09:26:18.572Z,19.80
2019-06-08T09:28:48.137Z,19.90
2019-06-08T09:31:18.669Z,19.60
2019-06-08T09:34:04.044Z,19.30
2019-06-08T09:36:19.650Z,19.00
2019-06-08T09:38:49.392Z,19.20
2019-06-08T09:41:19.341Z,19.50
2019-06-08T09:43:49.244Z,19.60
2019-06-08T09:46:19.533Z,19.60
2019-06-08T09:48:49.546Z,19.60
2019-06-08T09:51:19.349Z,19.40
2019-06-08T09:53:49.457Z,19.10
2019-06-08T09:56:19.203Z,18.70
2019-06-08T09:58:51.355Z,18.50
2019-06-08T10:01:20.222Z,18.40
2019-06-08T10:03:49.747Z,18.30
2019-06-08T10:06:19.751Z,18.50
2019-06-08T10:08:49.605Z,18.80
2019-06-08T10:11:19.636Z,18.90
2019-06-08T10:13:49.493Z,18.70
2019-06-08T10:16:19.023Z,18.40
2019-06-08T10:18:51.462Z,18.30
2019-06-08T10:21:21.056Z,18.30
2019-06-08T10:23:50.425Z,18.40
2019-06-08T10:26:20.480Z,18.70
2019-06-08T10:28:51.277Z,18.80
2019-06-08T10:31:35.531Z,18.90
2019-06-08T10:33:52.220Z,19.00
2019-06-08T10:36:21.842Z,19.10
2019-06-08T10:38:52.663Z,19.20
2019-06-08T10:41:21.994Z,19.20
2019-06-08T10:43:51.670Z,19.00
2019-06-08T10:46:21.672Z,19.00
2019-06-08T10:48:51.539Z,19.00
2019-06-08T10:51:21.299Z,18.80
2019-06-08T10:53:53.093Z,18.50
2019-06-08T10:56:22.472Z,18.30
2019-06-08T10:58:52.056Z,18.30
2019-06-08T11:01:21.880Z,18.10
2019-06-08T11:03:51.438Z,18.00
2019-06-08T11:06:21.457Z,17.90
2019-06-08T11:08:51.213Z,17.50
2019-06-08T11:11:20.747Z,16.80
2019-06-08T11:13:50.601Z,15.80
2019-06-08T11:16:20.552Z,15.20
2019-06-08T11:18:51.169Z,14.80
2019-06-08T11:21:20.419Z,14.80
2019-06-08T11:24:05.647Z,14.90
2019-06-08T11:26:24.407Z,15.10
2019-06-08T11:28:53.155Z,15.20
2019-06-08T11:31:23.081Z,15.30
2019-06-08T11:33:52.985Z,15.30
2019-06-08T11:36:22.836Z,15.40
2019-06-08T11:38:52.763Z,15.50
2019-06-08T11:41:22.994Z,15.80
2019-06-08T11:43:52.759Z,16.00
2019-06-08T11:46:22.411Z,16.20
2019-06-08T11:48:52.009Z,16.40
2019-06-08T11:51:22.017Z,16.60
2019-06-08T11:53:52.582Z,16.80
2019-06-08T11:56:23.241Z,17.00
2019-06-08T11:58:54.668Z,17.10
2019-06-08T12:01:24.463Z,17.20
2019-06-08T12:03:53.970Z,17.20
2019-06-08T12:06:23.716Z,17.10
2019-06-08T12:08:53.448Z,17.00
2019-06-08T12:11:24.108Z,16.40
2019-06-08T12:13:53.656Z,15.70
2019-06-08T12:16:23.183Z,15.10
2019-06-08T12:18:53.845Z,15.20
2019-06-08T12:21:23.462Z,15.40
2019-06-08T12:23:53.121Z,15.50
2019-06-08T12:26:22.824Z,15.70
2019-06-08T12:28:52.695Z,15.90
2019-06-08T12:31:22.988Z,15.90
2019-06-08T12:33:52.899Z,15.90
2019-06-08T12:36:22.451Z,15.80
2019-06-08T12:38:52.352Z,15.70
2019-06-08T12:41:22.307Z,15.80
2019-06-08T12:43:52.226Z,15.70
2019-06-08T12:46:22.095Z,15.80
2019-06-08T12:48:52.078Z,16.00
2019-06-08T12:51:21.895Z,16.20
2019-06-08T12:53:51.863Z,16.40
2019-06-08T12:56:23.957Z,16.60
2019-06-08T12:58:53.291Z,16.70
2019-06-08T13:01:24.507Z,16.70
2019-06-08T13:03:54.260Z,16.70
2019-06-08T13:06:23.851Z,16.80
2019-06-08T13:08:53.379Z,17.00
2019-06-08T13:11:22.981Z,17.20
2019-06-08T13:13:52.799Z,17.30
2019-06-08T13:16:24.487Z,17.40
2019-06-08T13:18:53.959Z,17.40
2019-06-08T13:21:34.058Z,17.40
2019-06-08T13:23:55.009Z,17.50
2019-06-08T13:26:27.956Z,17.70
2019-06-08T13:28:58.312Z,17.80
2019-06-08T13:31:28.721Z,17.80
2019-06-08T13:33:58.787Z,17.80
2019-06-08T13:36:29.778Z,17.90
2019-06-08T13:38:59.412Z,17.90
2019-06-08T13:41:29.901Z,17.70
2019-06-08T13:43:59.018Z,17.60
2019-06-08T13:46:28.912Z,17.50
2019-06-08T13:48:58.751Z,17.70
2019-06-08T13:51:28.867Z,17.90
2019-06-08T13:53:58.609Z,18.00
2019-06-08T13:56:28.890Z,18.10
2019-06-08T13:58:58.805Z,18.20
2019-06-08T14:01:30.877Z,18.20
2019-06-08T14:03:59.942Z,18.30
2019-06-08T14:06:30.112Z,18.20
2019-06-08T14:08:59.835Z,17.90
2019-06-08T14:11:29.583Z,17.60
2019-06-08T14:14:01.244Z,17.50
2019-06-08T14:16:31.047Z,17.50
2019-06-08T14:19:00.586Z,17.70
2019-06-08T14:21:38.753Z,17.70
2019-06-08T14:24:01.995Z,17.50
2019-06-08T14:26:31.509Z,17.40
2019-06-08T14:29:01.819Z,17.30
2019-06-08T14:31:32.179Z,17.30
2019-06-08T14:34:02.111Z,17.10
2019-06-08T14:36:31.928Z,16.70
2019-06-08T14:39:02.451Z,16.40
2019-06-08T14:41:31.807Z,16.20
2019-06-08T14:44:01.284Z,16.20
2019-06-08T14:46:30.983Z,16.50
2019-06-08T14:49:00.694Z,16.90
2019-06-08T14:51:48.019Z,17.10
2019-06-08T14:54:24.613Z,17.40
2019-06-08T14:56:50.178Z,17.50
2019-06-08T14:59:21.630Z,17.60
2019-06-08T15:01:51.587Z,17.70
2019-06-08T15:04:24.946Z,17.90
2019-06-08T15:06:52.698Z,18.00
2019-06-08T15:09:27.624Z,18.20
2019-06-08T15:11:58.204Z,18.30
2019-06-08T15:14:33.637Z,18.40
2019-06-08T15:17:00.896Z,18.40
2019-06-08T15:19:32.482Z,18.50
2019-06-08T15:22:02.004Z,18.60
2019-06-08T15:24:32.948Z,18.70
2019-06-08T15:27:02.701Z,18.80
2019-06-08T15:29:32.799Z,18.80
2019-06-08T15:32:02.599Z,18.70
2019-06-08T15:34:33.244Z,18.70
2019-06-08T15:37:02.823Z,18.80
2019-06-08T15:39:34.116Z,18.60
2019-06-08T15:42:04.248Z,18.40
2019-06-08T15:44:33.991Z,18.20
2019-06-08T15:47:03.786Z,18.00
2019-06-08T15:49:33.971Z,17.80
2019-06-08T15:52:04.473Z,17.60
2019-06-08T15:54:37.634Z,17.40
2019-06-08T15:57:05.453Z,17.20
2019-06-08T15:59:38.772Z,16.90
2019-06-08T16:02:06.539Z,16.60
2019-06-08T16:04:36.325Z,16.30
2019-06-08T16:07:06.467Z,16.20
2019-06-08T16:09:36.552Z,16.10
2019-06-08T16:12:06.487Z,16.20
2019-06-08T16:14:36.387Z,16.50
2019-06-08T16:17:06.319Z,16.90
2019-06-08T16:19:36.232Z,17.20
2019-06-08T16:22:06.344Z,17.30
2019-06-08T16:24:36.316Z,17.50
2019-06-08T16:27:06.020Z,17.60
2019-06-08T16:29:35.578Z,17.70
2019-06-08T16:32:05.113Z,17.80
2019-06-08T16:34:35.619Z,17.90
2019-06-08T16:37:05.855Z,17.90
2019-06-08T16:39:35.523Z,17.90
2019-06-08T16:42:05.209Z,17.90
2019-06-08T16:44:34.871Z,17.90
2019-06-08T16:47:04.944Z,17.90
2019-06-08T16:49:35.387Z,17.90
2019-06-08T16:52:05.271Z,17.90
2019-06-08T16:54:35.059Z,17.90
2019-06-08T16:57:09.917Z,17.90
2019-06-08T16:59:36.680Z,17.90
2019-06-08T17:02:06.472Z,17.80
2019-06-08T17:04:37.194Z,17.90
2019-06-08T17:07:06.796Z,18.00
2019-06-08T17:09:37.741Z,18.00
2019-06-08T17:12:07.746Z,17.80
2019-06-08T17:14:38.364Z,17.50
2019-06-08T17:17:08.346Z,17.30
2019-06-08T17:19:38.529Z,17.20
2019-06-08T17:22:08.180Z,17.10
2019-06-08T17:24:38.919Z,17.30
2019-06-08T17:27:08.097Z,17.50
2019-06-08T17:29:38.945Z,17.60
2019-06-08T17:32:08.749Z,17.60
2019-06-08T17:34:40.147Z,17.70
2019-06-08T17:37:09.859Z,17.60
2019-06-08T17:39:40.147Z,17.60
2019-06-08T17:42:10.067Z,17.50
2019-06-08T17:44:40.430Z,17.50
2019-06-08T17:47:10.289Z,17.50
2019-06-08T17:49:40.742Z,17.50
2019-06-08T17:52:10.384Z,17.50
2019-06-08T17:54:41.340Z,17.50
2019-06-08T17:57:10.337Z,17.40
2019-06-08T17:59:41.591Z,17.40
2019-06-08T18:02:17.200Z,17.40
2019-06-08T18:04:44.347Z,17.30
2019-06-08T18:07:16.990Z,17.30
2019-06-08T18:09:48.337Z,17.10
2019-06-08T18:12:18.347Z,17.00
2019-06-08T18:14:49.303Z,17.00
2019-06-08T18:17:19.173Z,16.90
2019-06-08T18:19:49.733Z,16.80
2019-06-08T18:22:19.818Z,16.70
2019-06-08T18:24:49.684Z,16.70
2019-06-08T18:27:19.573Z,16.60
2019-06-08T18:29:49.150Z,16.60
2019-06-08T18:32:18.990Z,16.60
2019-06-08T18:34:48.612Z,16.60
2019-06-08T18:37:18.417Z,16.50
2019-06-08T18:39:49.436Z,16.50
2019-06-08T18:42:20.667Z,16.40
2019-06-08T18:44:49.812Z,16.40
2019-06-08T18:47:19.321Z,16.40
2019-06-08T18:49:48.942Z,16.30
2019-06-08T18:52:18.727Z,16.30
2019-06-08T18:54:49.503Z,16.30
2019-06-08T18:57:19.789Z,16.20
2019-06-08T18:59:53.044Z,16.20
2019-06-08T19:02:20.871Z,16.20
2019-06-08T19:04:50.745Z,16.20
2019-06-08T19:07:20.518Z,16.10
2019-06-08T19:09:50.323Z,16.10
2019-06-08T19:12:19.933Z,16.10
2019-06-08T19:14:52.133Z,16.10
2019-06-08T19:17:21.254Z,16.10
2019-06-08T19:19:52.381Z,16.10
2019-06-08T19:22:23.515Z,16.00
2019-06-08T19:24:53.545Z,16.10
2019-06-08T19:27:23.442Z,16.10
2019-06-08T19:29:53.328Z,16.00
2019-06-08T19:32:23.300Z,16.00
2019-06-08T19:34:54.652Z,16.00
2019-06-08T19:37:24.739Z,15.90
2019-06-08T19:39:54.587Z,15.90
2019-06-08T19:42:37.050Z,15.80
2019-06-08T19:45:05.092Z,15.80
2019-06-08T19:47:27.677Z,15.80
2019-06-08T19:49:57.891Z,15.70
2019-06-08T19:52:27.849Z,15.70
2019-06-08T19:54:58.176Z,15.70
2019-06-08T19:57:28.381Z,15.60
2019-06-08T20:00:00.426Z,15.60
2019-06-08T20:02:29.878Z,15.50
2019-06-08T20:04:59.519Z,15.50
2019-06-08T20:07:29.047Z,15.50
2019-06-08T20:09:58.930Z,15.40
2019-06-08T20:12:29.150Z,15.40
2019-06-08T20:14:58.755Z,15.30
2019-06-08T20:17:28.687Z,15.30
2019-06-08T20:19:58.496Z,15.30
2019-06-08T20:22:28.258Z,15.20
2019-06-08T20:24:57.989Z,15.20
2019-06-08T20:27:27.880Z,15.20
2019-06-08T20:29:58.263Z,15.10
2019-06-08T20:32:28.405Z,15.10
2019-06-08T20:34:58.017Z,15.00
2019-06-08T20:37:28.382Z,15.00
2019-06-08T20:40:09.727Z,15.00
2019-06-08T20:42:31.002Z,14.90
2019-06-08T20:45:00.972Z,14.90
2019-06-08T20:47:30.858Z,14.80
2019-06-08T20:50:00.450Z,14.80
2019-06-08T20:52:30.002Z,14.70
2019-06-08T20:55:00.220Z,14.70
2019-06-08T20:57:29.747Z,14.70
2019-06-08T20:59:59.322Z,14.70
2019-06-08T21:02:29.204Z,14.70
2019-06-08T21:04:59.627Z,14.60
2019-06-08T21:07:29.272Z,14.60
2019-06-08T21:09:59.406Z,14.60
2019-06-08T21:12:29.013Z,14.60
2019-06-08T21:14:58.764Z,14.50
2019-06-08T21:17:28.780Z,14.50
2019-06-08T21:19:59.268Z,14.40
2019-06-08T21:22:28.839Z,14.40
2019-06-08T21:25:00.041Z,14.40
2019-06-08T21:27:30.495Z,14.40
2019-06-08T21:30:08.469Z,14.40
2019-06-08T21:32:31.236Z,14.30
2019-06-08T21:35:01.002Z,14.20
2019-06-08T21:37:30.540Z,14.20
2019-06-08T21:40:03.960Z,14.20
2019-06-08T21:42:31.969Z,14.10
2019-06-08T21:45:02.938Z,14.10
2019-06-08T21:47:32.779Z,14.00
2019-06-08T21:50:02.487Z,14.00
2019-06-08T21:52:32.434Z,14.00
2019-06-08T21:55:02.365Z,14.00
2019-06-08T21:57:32.251Z,14.00
2019-06-08T22:00:21.940Z,14.00
2019-06-08T22:02:33.309Z,14.00
2019-06-08T22:05:04.832Z,13.90
2019-06-08T22:07:34.785Z,13.80
2019-06-08T22:10:07.525Z,13.80
2019-06-08T22:12:40.186Z,13.70
2019-06-08T22:15:09.000Z,13.70
2019-06-08T22:17:38.567Z,13.70
2019-06-08T22:20:09.132Z,13.60
2019-06-08T22:22:38.776Z,13.70
2019-06-08T22:25:08.671Z,13.60
2019-06-08T22:27:38.413Z,13.60
2019-06-08T22:30:11.626Z,13.60
2019-06-08T22:32:39.839Z,13.60
2019-06-08T22:35:09.904Z,13.60
2019-06-08T22:37:39.504Z,13.60
2019-06-08T22:40:10.160Z,13.50
2019-06-08T22:42:39.736Z,13.50
2019-06-08T22:45:09.597Z,13.50
2019-06-08T22:47:39.152Z,13.50
2019-06-08T22:50:09.204Z,13.50
2019-06-08T22:52:38.983Z,13.50
2019-06-08T22:55:11.016Z,13.50
2019-06-08T22:57:40.048Z,13.50
2019-06-08T23:00:16.713Z,13.40
2019-06-08T23:02:42.336Z,13.50
2019-06-08T23:05:11.870Z,13.40
2019-06-08T23:07:42.611Z,13.40
2019-06-08T23:10:12.546Z,13.40
2019-06-08T23:12:42.404Z,13.40
2019-06-08T23:15:12.158Z,13.40
2019-06-08T23:17:41.840Z,13.40
2019-06-08T23:20:11.621Z,13.30
2019-06-08T23:22:42.525Z,13.30
2019-06-08T23:25:11.542Z,13.30
2019-06-08T23:27:41.078Z,13.30
2019-06-08T23:30:12.331Z,13.20
2019-06-08T23:32:42.250Z,13.20
2019-06-08T23:35:12.480Z,13.20
2019-06-08T23:37:42.027Z,13.10
2019-06-08T23:40:12.235Z,13.10
2019-06-08T23:42:41.907Z,12.90
2019-06-08T23:45:11.859Z,12.90
2019-06-08T23:47:41.732Z,12.90
2019-06-08T23:50:11.968Z,12.80
2019-06-08T23:52:41.563Z,12.80
2019-06-08T23:55:12.162Z,12.70
2019-06-08T23:57:41.779Z,12.50
